Time;durP1;ratioP1;P1;durP2;ratioP2;P2;SDS_P1;SDS_P2;PMS_P1;PMS_P2;Temp;Humidity;BMP_temperature;BMP_pressure;BME280_temperature;BME280_humidity;BME280_pressure;Samples;Min_cycle;Max_cycle;Signal;HPM_P1;HPM_P2
2023/12/15 00:01:53;;;;;;;0.80;0.50;;;16.00;54.00;;;;;;5050883;28;20051;-69
2023/12/15 00:04:19;;;;;;;1.20;0.50;;;16.00;54.00;;;;;;5050564;28;20053;-70
2023/12/15 00:06:44;;;;;;;1.10;0.60;;;16.00;54.00;;;;;;5050398;28;20056;-69
2023/12/15 00:09:10;;;;;;;0.85;0.43;;;16.00;54.10;;;;;;5050632;28;20110;-69
2023/12/15 00:11:38;;;;;;;0.88;0.52;;;16.00;54.10;;;;;;5051494;28;20049;-69
2023/12/15 00:14:04;;;;;;;0.90;0.30;;;16.00;54.10;;;;;;5051873;28;20045;-69
2023/12/15 00:16:30;;;;;;;0.75;0.50;;;16.00;54.10;;;;;;5050609;28;20391;-69
2023/12/15 00:18:55;;;;;;;1.08;0.57;;;16.00;54.10;;;;;;5050787;28;20051;-69
2023/12/15 00:21:22;;;;;;;1.10;0.60;;;16.00;54.10;;;;;;5050650;28;20055;-69
2023/12/15 00:23:48;;;;;;;0.63;0.30;;;16.00;54.10;;;;;;5050486;28;20048;-70
2023/12/15 00:26:14;;;;;;;0.82;0.40;;;15.90;54.10;;;;;;5050607;28;20048;-69
2023/12/15 00:28:40;;;;;;;1.85;0.50;;;16.00;54.20;;;;;;5050444;28;20110;-69
2023/12/15 00:31:05;;;;;;;0.85;0.52;;;15.90;54.10;;;;;;5051474;28;20044;-69
2023/12/15 00:33:31;;;;;;;0.50;0.30;;;15.90;54.20;;;;;;5050527;28;20041;-69
2023/12/15 00:35:59;;;;;;;0.80;0.40;;;15.90;54.20;;;;;;5050567;28;20045;-69
2023/12/15 00:38:24;;;;;;;0.85;0.30;;;15.90;54.20;;;;;;5050611;28;20041;-69
2023/12/15 00:40:50;;;;;;;0.70;0.40;;;15.90;54.30;;;;;;5050297;28;20538;-69
2023/12/15 00:43:16;;;;;;;1.10;0.40;;;15.90;54.30;;;;;;5051416;28;20041;-70
2023/12/15 00:45:42;;;;;;;0.80;0.30;;;15.90;54.30;;;;;;5050251;28;20283;-70
2023/12/15 00:48:08;;;;;;;0.95;0.45;;;15.90;54.30;;;;;;5050115;28;20098;-70
2023/12/15 00:50:36;;;;;;;1.00;0.50;;;15.90;54.30;;;;;;5049881;28;20060;-69
2023/12/15 00:53:02;;;;;;;2.72;0.50;;;15.90;54.40;;;;;;5050127;28;20045;-69
2023/12/15 00:55:28;;;;;;;0.60;0.30;;;15.90;54.30;;;;;;5050170;28;20048;-69
2023/12/15 00:57:53;;;;;;;1.45;0.50;;;15.90;54.40;;;;;;5050315;28;20384;-69
2023/12/15 01:00:19;;;;;;;0.60;0.30;;;15.90;54.40;;;;;;5051321;28;20037;-69
2023/12/15 01:02:45;;;;;;;0.50;0.50;;;15.80;54.30;;;;;;5050001;28;20052;-69
2023/12/15 01:05:10;;;;;;;1.27;0.50;;;15.80;54.30;;;;;;5050007;28;20041;-69
2023/12/15 01:07:36;;;;;;;0.70;0.40;;;15.80;54.40;;;;;;5050203;28;20045;-69
2023/12/15 01:10:02;;;;;;;1.65;0.63;;;15.80;54.40;;;;;;5050300;28;20037;-68
2023/12/15 01:12:28;;;;;;;0.75;0.35;;;15.80;54.40;;;;;;5050845;28;20052;-70
2023/12/15 01:14:53;;;;;;;0.80;0.50;;;15.80;54.50;;;;;;5051328;28;20041;-69
2023/12/15 01:17:19;;;;;;;0.70;0.38;;;15.80;54.40;;;;;;5049913;28;20051;-70
2023/12/15 01:19:44;;;;;;;0.82;0.40;;;15.80;54.50;;;;;;5054243;28;20037;-70
2023/12/15 01:22:10;;;;;;;0.80;0.40;;;15.80;54.50;;;;;;5053433;28;20045;-69
2023/12/15 01:24:36;;;;;;;1.05;0.50;;;15.70;54.40;;;;;;5053604;28;20407;-69
2023/12/15 01:27:01;;;;;;;0.55;0.30;;;15.80;54.50;;;;;;5055037;28;20467;-69
2023/12/15 01:29:30;;;;;;;0.60;0.40;;;15.80;54.50;;;;;;5053315;28;20412;-69
2023/12/15 01:31:55;;;;;;;1.45;0.45;;;15.80;54.60;;;;;;5054556;28;20041;-69
2023/12/15 01:34:21;;;;;;;1.05;0.40;;;15.80;54.60;;;;;;5054419;28;20488;-69
2023/12/15 01:36:46;;;;;;;0.57;0.38;;;15.70;54.50;;;;;;5053223;28;20037;-69
2023/12/15 01:39:12;;;;;;;0.60;0.30;;;15.70;54.60;;;;;;5054624;28;20073;-70
2023/12/15 01:41:38;;;;;;;0.82;0.38;;;15.80;54.60;;;;;;5053155;28;20040;-69
2023/12/15 01:44:06;;;;;;;0.85;0.30;;;15.80;54.70;;;;;;5054336;28;20040;-69
2023/12/15 01:46:35;;;;;;;0.70;0.50;;;16.10;54.40;;;;;;5054262;28;20044;-69
2023/12/15 01:49:00;;;;;;;0.85;0.30;;;16.60;53.10;;;;;;5052907;28;20048;-69
2023/12/15 01:51:26;;;;;;;0.57;0.30;;;17.20;51.80;;;;;;5052935;28;20044;-70
2023/12/15 01:53:52;;;;;;;0.65;0.30;;;17.90;50.20;;;;;;5053150;28;20048;-69
2023/12/15 01:56:17;;;;;;;0.88;0.30;;;18.70;48.50;;;;;;5052947;28;20494;-69
2023/12/15 01:58:43;;;;;;;1.85;0.20;;;19.50;46.50;;;;;;5054101;28;20037;-70
2023/12/15 02:01:09;;;;;;;0.52;0.20;;;20.40;44.80;;;;;;5052779;28;20044;-69
2023/12/15 02:03:34;;;;;;;0.60;0.30;;;21.20;43.30;;;;;;5036044;28;20033;-69
2023/12/15 02:06:06;;;;;;;0.70;0.30;;;21.80;42.00;;;;;;5052666;28;20053;-69
2023/12/15 02:08:33;;;;;;;1.00;0.40;;;22.40;41.00;;;;;;5052695;28;20453;-70
2023/12/15 02:10:59;;;;;;;0.85;0.30;;;22.80;40.10;;;;;;5055607;28;20446;-69
2023/12/15 02:13:25;;;;;;;1.23;0.63;;;23.20;39.30;;;;;;5055880;28;20048;-69
2023/12/15 02:15:50;;;;;;;0.50;0.38;;;23.50;38.80;;;;;;5056174;28;20055;-69
2023/12/15 02:18:16;;;;;;;1.67;0.30;;;23.80;38.30;;;;;;5055899;28;20407;-69
2023/12/15 02:20:42;;;;;;;1.48;0.40;;;23.90;37.90;;;;;;5073895;28;20044;-69
2023/12/15 02:23:08;;;;;;;0.60;0.30;;;24.10;37.70;;;;;;5073885;28;20028;-70
2023/12/15 02:25:33;;;;;;;0.90;0.20;;;24.20;37.50;;;;;;5039255;28;20029;-69
2023/12/15 02:27:59;;;;;;;0.82;0.30;;;24.40;37.30;;;;;;5056114;28;20502;-70
2023/12/15 02:30:27;;;;;;;0.70;0.20;;;24.50;37.10;;;;;;5055471;28;20063;-71
2023/12/15 02:32:53;;;;;;;0.82;0.20;;;24.60;37.00;;;;;;5073461;28;20418;-69
2023/12/15 02:35:19;;;;;;;0.47;0.20;;;24.70;36.70;;;;;;5055420;28;20036;-69
2023/12/15 02:37:44;;;;;;;0.43;0.20;;;24.70;36.60;;;;;;5073599;28;20071;-69
2023/12/15 02:40:10;;;;;;;0.50;0.20;;;24.70;36.60;;;;;;5073540;28;20039;-69
2023/12/15 02:42:36;;;;;;;0.57;0.20;;;24.70;36.60;;;;;;5055391;28;20048;-69
2023/12/15 02:45:01;;;;;;;0.57;0.20;;;24.80;36.60;;;;;;5055140;28;20044;-69
2023/12/15 02:47:28;;;;;;;0.73;0.30;;;24.70;36.60;;;;;;5073302;28;20044;-70
2023/12/15 02:49:57;;;;;;;0.60;0.30;;;24.70;36.70;;;;;;5073050;28;20408;-70
2023/12/15 02:52:22;;;;;;;0.63;0.35;;;24.50;36.90;;;;;;5071768;28;20468;-69
2023/12/15 02:54:48;;;;;;;0.80;0.30;;;24.40;37.00;;;;;;5055083;28;20068;-70
2023/12/15 02:57:14;;;;;;;0.80;0.22;;;24.30;37.30;;;;;;5055013;28;20039;-69
2023/12/15 02:59:39;;;;;;;0.30;0.10;;;24.10;37.40;;;;;;5055037;28;20048;-69
2023/12/15 03:02:05;;;;;;;0.70;0.35;;;24.00;38.40;;;;;;5054922;28;20047;-70
2023/12/15 03:04:31;;;;;;;1.23;0.30;;;23.80;37.90;;;;;;5055138;28;20044;-69
2023/12/15 03:06:56;;;;;;;0.75;0.30;;;23.70;38.10;;;;;;5054774;28;20036;-69
2023/12/15 03:09:22;;;;;;;0.55;0.20;;;23.60;38.30;;;;;;5072738;28;20072;-69
2023/12/15 03:11:48;;;;;;;1.02;0.20;;;23.50;38.60;;;;;;5072462;28;20128;-70
2023/12/15 03:14:14;;;;;;;0.47;0.20;;;23.40;38.60;;;;;;5072750;28;20033;-71
2023/12/15 03:16:39;;;;;;;0.70;0.25;;;23.40;38.70;;;;;;5072553;28;20467;-70
2023/12/15 03:19:05;;;;;;;0.77;0.30;;;23.30;38.70;;;;;;5072494;28;20043;-69
2023/12/15 03:21:33;;;;;;;1.40;0.30;;;23.30;38.70;;;;;;5054400;28;20131;-69
2023/12/15 03:24:00;;;;;;;0.95;0.20;;;23.40;38.80;;;;;;5072440;28;20119;-71
2023/12/15 03:26:26;;;;;;;0.50;0.30;;;23.40;38.80;;;;;;5071162;28;20040;-70
2023/12/15 03:28:52;;;;;;;0.80;0.32;;;23.50;38.70;;;;;;5054551;28;20056;-69
2023/12/15 03:31:21;;;;;;;0.80;0.30;;;23.60;38.50;;;;;;5054323;28;20119;-69
2023/12/15 03:33:46;;;;;;;0.52;0.30;;;23.70;38.40;;;;;;5054424;28;20041;-70
2023/12/15 03:36:12;;;;;;;1.70;0.30;;;23.70;38.20;;;;;;5072206;28;20032;-69
2023/12/15 03:38:37;;;;;;;0.50;0.20;;;23.70;38.20;;;;;;5054536;28;20467;-69
2023/12/15 03:41:06;;;;;;;0.70;0.30;;;23.60;38.20;;;;;;5071994;28;20100;-70
2023/12/15 03:43:32;;;;;;;0.98;0.28;;;23.70;39.10;;;;;;5054180;28;20098;-69
2023/12/15 03:45:57;;;;;;;1.33;0.30;;;23.70;38.30;;;;;;5070768;28;20053;-70
2023/12/15 03:48:26;;;;;;;0.63;0.20;;;23.70;38.30;;;;;;5054198;28;20049;-69
2023/12/15 03:50:51;;;;;;;1.00;0.20;;;23.70;38.30;;;;;;5054293;28;20032;-69
2023/12/15 03:53:17;;;;;;;0.70;0.20;;;23.70;38.30;;;;;;5070636;28;20445;-69
2023/12/15 03:55:42;;;;;;;1.73;0.20;;;23.70;38.30;;;;;;5054295;28;20045;-69
2023/12/15 03:58:08;;;;;;;0.63;0.22;;;23.60;38.40;;;;;;5053939;28;20116;-69
2023/12/15 04:00:34;;;;;;;0.85;0.20;;;23.60;38.40;;;;;;5054362;28;20037;-70
2023/12/15 04:02:59;;;;;;;0.90;0.20;;;23.60;38.50;;;;;;5054172;28;20395;-69
2023/12/15 04:05:28;;;;;;;0.50;0.10;;;23.60;38.50;;;;;;5053915;28;20036;-70
2023/12/15 04:07:54;;;;;;;1.25;0.65;;;23.50;38.60;;;;;;5071665;28;20487;-69
2023/12/15 04:10:19;;;;;;;1.38;0.20;;;23.50;38.70;;;;;;5053873;28;20044;-70
2023/12/15 04:12:45;;;;;;;1.02;0.30;;;23.40;38.70;;;;;;5054058;28;20060;-69
2023/12/15 04:15:11;;;;;;;0.73;0.30;;;23.40;38.80;;;;;;5070502;28;20041;-69
2023/12/15 04:17:36;;;;;;;1.40;0.40;;;23.30;38.80;;;;;;5053724;28;20052;-69
2023/12/15 04:20:02;;;;;;;0.63;0.30;;;23.30;38.90;;;;;;5071565;28;20037;-69
2023/12/15 04:22:28;;;;;;;0.88;0.30;;;23.30;38.90;;;;;;5053682;28;20506;-69
2023/12/15 04:24:53;;;;;;;0.52;0.20;;;23.30;38.90;;;;;;5071698;28;20039;-69
2023/12/15 04:27:19;;;;;;;0.88;0.20;;;23.30;39.10;;;;;;5053937;28;20430;-70
2023/12/15 04:29:45;;;;;;;2.28;0.20;;;23.20;39.10;;;;;;5053728;28;20041;-69
2023/12/15 04:32:12;;;;;;;0.85;0.30;;;23.20;39.90;;;;;;5053516;28;20086;-69
2023/12/15 04:34:38;;;;;;;0.95;0.30;;;23.20;39.20;;;;;;5053554;28;20053;-69
2023/12/15 04:37:04;;;;;;;0.70;0.30;;;23.20;39.30;;;;;;5071565;28;20036;-70
2023/12/15 04:39:30;;;;;;;0.80;0.20;;;23.20;39.30;;;;;;5054384;28;20472;-70
2023/12/15 04:41:55;;;;;;;1.02;0.30;;;23.10;39.30;;;;;;5054135;28;20514;-69
2023/12/15 04:44:21;;;;;;;0.63;0.20;;;23.10;39.30;;;;;;5053962;28;20506;-70
2023/12/15 04:46:47;;;;;;;1.65;0.30;;;23.10;39.40;;;;;;5071706;28;20134;-70
2023/12/15 04:49:12;;;;;;;0.85;0.20;;;23.10;39.40;;;;;;5053674;28;20041;-70
2023/12/15 04:51:41;;;;;;;0.40;0.20;;;23.00;39.40;;;;;;5053433;28;20041;-69
2023/12/15 04:54:06;;;;;;;1.13;0.40;;;23.10;39.50;;;;;;5055751;28;20187;-70
2023/12/15 04:56:33;;;;;;;0.82;0.30;;;23.10;39.50;;;;;;5057291;28;20040;-69
2023/12/15 04:58:58;;;;;;;1.23;0.20;;;23.00;39.40;;;;;;5057515;28;20044;-69
2023/12/15 05:01:25;;;;;;;1.05;0.30;;;23.00;39.40;;;;;;5073831;28;20199;-70
2023/12/15 05:03:51;;;;;;;0.50;0.30;;;23.00;39.50;;;;;;5057157;28;20543;-69
2023/12/15 05:06:19;;;;;;;1.75;0.52;;;23.00;39.50;;;;;;5056965;28;20131;-69
2023/12/15 05:08:46;;;;;;;1.50;0.30;;;23.00;39.50;;;;;;5075063;28;20048;-70
2023/12/15 05:11:12;;;;;;;1.00;0.30;;;23.00;39.40;;;;;;5073464;28;20048;-69
2023/12/15 05:13:38;;;;;;;1.45;0.20;;;23.10;39.40;;;;;;5074844;28;20044;-69
2023/12/15 05:16:04;;;;;;;0.65;0.30;;;23.20;39.40;;;;;;5057005;28;20509;-70
2023/12/15 05:18:30;;;;;;;0.55;0.20;;;23.20;39.30;;;;;;5057105;28;20049;-70
2023/12/15 05:20:56;;;;;;;1.05;0.20;;;23.20;39.30;;;;;;5056799;28;20475;-69
2023/12/15 05:23:21;;;;;;;0.47;0.15;;;23.20;39.30;;;;;;5074756;28;20041;-69
2023/12/15 05:25:47;;;;;;;1.13;0.32;;;23.20;39.20;;;;;;5056765;28;20565;-69
2023/12/15 05:28:12;;;;;;;1.20;0.30;;;23.30;39.20;;;;;;5074840;28;20036;-69
2023/12/15 05:30:38;;;;;;;1.10;0.30;;;23.30;39.20;;;;;;5074468;28;20037;-71
2023/12/15 05:33:04;;;;;;;0.60;0.30;;;23.30;39.10;;;;;;5056952;28;20040;-70
2023/12/15 05:35:29;;;;;;;0.57;0.20;;;23.30;39.10;;;;;;5056576;28;20525;-69
2023/12/15 05:37:55;;;;;;;0.77;0.30;;;23.30;39.20;;;;;;5074501;28;20391;-70
2023/12/15 05:40:20;;;;;;;1.23;0.40;;;23.20;39.10;;;;;;5073220;28;20041;-70
2023/12/15 05:42:46;;;;;;;2.30;0.30;;;23.30;39.30;;;;;;5074369;28;20127;-69
2023/12/15 05:45:12;;;;;;;1.02;0.20;;;23.20;39.30;;;;;;5056603;28;20051;-70
2023/12/15 05:47:40;;;;;;;0.80;0.30;;;23.20;39.40;;;;;;5056405;28;20411;-69
2023/12/15 05:50:07;;;;;;;0.88;0.40;;;23.20;39.40;;;;;;5056609;28;20091;-70
2023/12/15 05:52:32;;;;;;;2.60;0.30;;;23.20;39.50;;;;;;5072782;28;20498;-69
2023/12/15 05:54:58;;;;;;;0.90;0.30;;;23.00;39.40;;;;;;5056207;28;20040;-70
2023/12/15 05:57:23;;;;;;;0.80;0.25;;;23.00;39.60;;;;;;5056200;28;20043;-71
2023/12/15 05:59:49;;;;;;;1.25;0.30;;;23.00;39.70;;;;;;5074336;28;20044;-71
2023/12/15 06:02:14;;;;;;;1.10;0.40;;;23.00;39.70;;;;;;5072966;28;20048;-71
2023/12/15 06:04:43;;;;;;;0.50;0.20;;;22.90;39.80;;;;;;5056349;28;20063;-69
2023/12/15 06:07:09;;;;;;;1.65;0.40;;;22.90;39.80;;;;;;5056167;28;20051;-70
2023/12/15 06:09:36;;;;;;;1.33;0.28;;;22.90;39.90;;;;;;5073911;28;20391;-70
2023/12/15 06:12:03;;;;;;;1.00;0.40;;;22.80;39.90;;;;;;5039556;28;20555;-69
2023/12/15 06:14:28;;;;;;;1.27;0.30;;;22.80;40.00;;;;;;5035919;28;20484;-70
2023/12/15 06:16:54;;;;;;;0.98;0.30;;;22.80;39.90;;;;;;5036077;28;20040;-70
2023/12/15 06:19:20;;;;;;;0.90;0.30;;;22.80;40.00;;;;;;5035871;28;20037;-70
2023/12/15 06:21:45;;;;;;;0.80;0.30;;;22.80;39.90;;;;;;5035893;28;20424;-69
2023/12/15 06:24:11;;;;;;;1.77;0.30;;;22.90;39.90;;;;;;5035965;28;20052;-69
2023/12/15 06:26:37;;;;;;;1.92;0.30;;;22.90;39.90;;;;;;5053815;28;20041;-70
2023/12/15 06:29:02;;;;;;;1.13;0.40;;;22.90;39.90;;;;;;5053547;28;20045;-69
2023/12/15 06:31:29;;;;;;;1.10;0.30;;;23.00;39.80;;;;;;5035715;28;20373;-69
2023/12/15 06:33:55;;;;;;;0.93;0.30;;;23.00;39.80;;;;;;5053427;28;20033;-69
2023/12/15 06:36:21;;;;;;;1.00;0.40;;;23.00;39.70;;;;;;5053554;28;20193;-70
2023/12/15 06:38:46;;;;;;;0.82;0.30;;;23.00;39.70;;;;;;5053503;28;20048;-70
2023/12/15 06:41:13;;;;;;;1.23;0.20;;;23.00;39.60;;;;;;5035555;28;20086;-70
2023/12/15 06:43:41;;;;;;;0.85;0.32;;;23.00;39.60;;;;;;5035653;28;20041;-70
2023/12/15 06:46:06;;;;;;;1.45;0.45;;;23.10;39.60;;;;;;5035579;28;20041;-69
2023/12/15 06:48:33;;;;;;;0.90;0.40;;;23.10;39.70;;;;;;5051984;28;20037;-69
2023/12/15 06:50:58;;;;;;;1.85;0.47;;;23.00;39.60;;;;;;5054987;28;20041;-70
2023/12/15 06:53:24;;;;;;;10.25;6.22;;;23.00;39.80;;;;;;5037427;28;20043;-69
2023/12/15 06:55:50;;;;;;;7.80;5.07;;;22.90;40.10;;;;;;5056355;28;20110;-73
2023/12/15 06:58:16;;;;;;;3.80;3.40;;;22.90;40.30;;;;;;5063018;28;20037;-71
2023/12/15 07:00:42;;;;;;;3.95;2.05;;;22.80;41.10;;;;;;5042155;28;20068;-70
2023/12/15 07:03:08;;;;;;;3.90;1.92;;;22.70;41.50;;;;;;5061983;28;20041;-71
2023/12/15 07:05:34;;;;;;;3.80;1.92;;;22.70;42.00;;;;;;5036213;28;20043;-69
2023/12/15 07:08:01;;;;;;;3.25;1.92;;;22.70;42.20;;;;;;5035063;28;20094;-67
2023/12/15 07:10:26;;;;;;;5.47;1.25;;;22.70;42.30;;;;;;5036543;28;20056;-76
2023/12/15 07:12:52;;;;;;;2.47;1.58;;;22.80;42.20;;;;;;5052622;28;20040;-70
2023/12/15 07:15:17;;;;;;;3.50;1.38;;;22.90;42.10;;;;;;5050532;28;20491;-69
2023/12/15 07:17:43;;;;;;;2.00;1.00;;;22.90;42.00;;;;;;5051291;28;20040;-74
2023/12/15 07:20:09;;;;;;;2.67;1.17;;;23.00;41.80;;;;;;5054852;28;20501;-75
2023/12/15 07:22:35;;;;;;;4.18;1.10;;;23.00;41.70;;;;;;5048976;28;20132;-74
2023/12/15 07:25:01;;;;;;;3.05;0.70;;;23.00;41.60;;;;;;5065283;28;20051;-73
2023/12/15 07:27:26;;;;;;;2.33;0.90;;;23.00;41.60;;;;;;5050728;28;20044;-74
2023/12/15 07:29:52;;;;;;;2.00;0.80;;;23.10;41.60;;;;;;5067670;28;20029;-75
2023/12/15 07:32:18;;;;;;;2.83;0.77;;;23.10;41.70;;;;;;5053240;28;20078;-68
2023/12/15 07:34:44;;;;;;;1.90;1.02;;;23.10;41.80;;;;;;5051006;28;20086;-69
2023/12/15 07:37:10;;;;;;;4.55;2.90;;;23.00;41.90;;;;;;5062438;28;20045;-68
2023/12/15 07:39:35;;;;;;;6.55;3.95;;;22.90;41.90;;;;;;5059114;28;20048;-73
2023/12/15 07:42:01;;;;;;;6.15;4.40;;;22.90;41.70;;;;;;5042796;28;20127;-68
2023/12/15 07:44:29;;;;;;;6.03;3.88;;;22.80;41.60;;;;;;5042232;28;20102;-69
2023/12/15 07:46:58;;;;;;;6.20;3.65;;;22.80;41.80;;;;;;5044093;28;20051;-70
2023/12/15 07:49:24;;;;;;;4.05;2.90;;;22.70;42.80;;;;;;5061283;28;20040;-70
2023/12/15 07:51:50;;;;;;;6.38;3.25;;;22.60;42.20;;;;;;5047575;28;20043;-74
2023/12/15 07:54:16;;;;;;;4.03;2.42;;;22.70;42.40;;;;;;5041104;28;20052;-77
2023/12/15 07:56:42;;;;;;;7.53;2.22;;;22.60;42.50;;;;;;5061953;28;20082;-69
2023/12/15 07:59:08;;;;;;;5.28;2.10;;;22.70;42.60;;;;;;5043046;28;20040;-71
2023/12/15 08:01:34;;;;;;;6.70;1.73;;;22.80;42.40;;;;;;5057837;28;20048;-68
2023/12/15 08:04:00;;;;;;;4.60;1.73;;;22.90;42.20;;;;;;5045285;28;20372;-68
2023/12/15 08:06:25;;;;;;;3.80;1.13;;;23.00;42.10;;;;;;5046818;28;20085;-69
2023/12/15 08:08:52;;;;;;;6.68;1.48;;;23.10;42.10;;;;;;5060386;28;20087;-69
2023/12/15 08:11:18;;;;;;;7.55;1.10;;;23.10;41.90;;;;;;5053804;28;20052;-74
2023/12/15 08:13:44;;;;;;;6.30;1.45;;;23.10;42.00;;;;;;5037482;28;20045;-71
2023/12/15 08:16:10;;;;;;;2.58;1.00;;;23.00;42.20;;;;;;5041433;28;20069;-68
2023/12/15 08:18:35;;;;;;;5.47;1.67;;;23.00;42.50;;;;;;5045337;28;20037;-69
2023/12/15 08:21:01;;;;;;;4.20;1.45;;;22.90;42.70;;;;;;5041328;28;20399;-67
2023/12/15 08:23:27;;;;;;;4.22;1.38;;;22.80;42.90;;;;;;5038788;28;20040;-72
2023/12/15 08:25:53;;;;;;;3.63;1.60;;;22.80;43.20;;;;;;5038218;28;20564;-68
2023/12/15 08:28:20;;;;;;;2.67;1.20;;;22.70;43.40;;;;;;5055757;28;20044;-69
2023/12/15 08:30:47;;;;;;;4.68;0.90;;;22.70;43.50;;;;;;5038596;28;20492;-69
2023/12/15 08:33:12;;;;;;;7.22;1.27;;;22.70;43.70;;;;;;5057874;28;20510;-70
2023/12/15 08:35:38;;;;;;;3.50;1.23;;;22.70;43.70;;;;;;5040124;28;20040;-71
2023/12/15 08:38:04;;;;;;;3.38;0.77;;;22.70;43.70;;;;;;5039005;28;20048;-68
2023/12/15 08:40:29;;;;;;;4.45;1.00;;;22.80;43.80;;;;;;5040808;28;20858;-70
2023/12/15 08:42:55;;;;;;;2.22;0.70;;;22.90;43.90;;;;;;5056989;28;20131;-70
2023/12/15 08:45:20;;;;;;;3.22;0.70;;;22.90;44.00;;;;;;5038819;28;20088;-72
2023/12/15 08:47:46;;;;;;;2.58;0.70;;;22.90;44.00;;;;;;5039596;28;20036;-68
2023/12/15 08:50:13;;;;;;;3.60;0.93;;;23.00;44.00;;;;;;5038591;28;20502;-70
2023/12/15 08:52:41;;;;;;;2.00;1.20;;;23.30;43.70;;;;;;5035850;28;20236;-69
2023/12/15 08:55:07;;;;;;;2.75;1.20;;;23.70;43.10;;;;;;5058042;28;20047;-74
2023/12/15 08:57:33;;;;;;;5.30;1.30;;;24.10;42.30;;;;;;5035086;28;20040;-76
2023/12/15 09:00:04;;;;;;;1.95;1.35;;;24.30;41.70;;;;;;5053777;28;20047;-77
2023/12/15 09:02:29;;;;;;;2.97;1.05;;;24.40;41.60;;;;;;5055776;28;20037;-67
2023/12/15 09:04:58;;;;;;;3.55;1.45;;;24.50;41.40;;;;;;5037930;28;20052;-67
2023/12/15 09:07:24;;;;;;;2.00;1.45;;;24.50;41.20;;;;;;5037059;28;20383;-70
2023/12/15 09:09:49;;;;;;;6.93;1.50;;;24.60;41.10;;;;;;5035681;28;20821;-68
2023/12/15 09:12:15;;;;;;;3.13;1.17;;;24.80;40.80;;;;;;5035769;28;20507;-65
2023/12/15 09:14:41;;;;;;;4.88;1.48;;;24.90;40.70;;;;;;5058183;28;20025;-69
2023/12/15 09:17:11;;;;;;;5.32;1.30;;;25.00;40.70;;;;;;5054821;28;20416;-75
2023/12/15 09:19:38;;;;;;;4.00;1.05;;;25.10;40.70;;;;;;5053451;28;20408;-73
2023/12/15 09:22:05;;;;;;;4.03;1.23;;;25.10;40.60;;;;;;5038718;28;20048;-66
2023/12/15 09:24:31;;;;;;;4.85;0.90;;;25.10;40.70;;;;;;5039215;28;20076;-67
2023/12/15 09:26:56;;;;;;;5.28;0.95;;;25.10;40.90;;;;;;5034521;28;20057;-68
2023/12/15 09:29:25;;;;;;;4.70;0.70;;;25.30;40.80;;;;;;5053689;28;20436;-66
2023/12/15 09:31:51;;;;;;;4.63;0.93;;;25.60;40.50;;;;;;5039437;28;20052;-72
2023/12/15 09:34:17;;;;;;;6.35;1.35;;;25.90;40.10;;;;;;5042619;28;20052;-69
2023/12/15 09:36:43;;;;;;;4.22;0.80;;;26.10;39.60;;;;;;5047585;28;20044;-65
2023/12/15 09:39:08;;;;;;;4.35;0.57;;;26.40;39.10;;;;;;5040037;28;20380;-67
2023/12/15 09:41:35;;;;;;;4.07;1.02;;;26.60;38.80;;;;;;5039486;28;20478;-66
2023/12/15 09:44:01;;;;;;;3.95;1.00;;;26.70;38.50;;;;;;5057644;28;20084;-70
2023/12/15 09:46:27;;;;;;;1.88;0.38;;;26.60;38.40;;;;;;5060254;28;20116;-66
2023/12/15 09:48:53;;;;;;;8.45;1.00;;;26.50;38.40;;;;;;5047077;28;20120;-73
2023/12/15 09:51:24;;;;;;;2.67;0.88;;;26.40;38.50;;;;;;5050583;28;20510;-65
2023/12/15 09:53:53;;;;;;;3.20;0.75;;;26.10;38.70;;;;;;5038730;28;20040;-71
2023/12/15 09:56:19;;;;;;;2.42;0.47;;;25.80;39.00;;;;;;5060562;28;20042;-67
2023/12/15 09:58:45;;;;;;;3.83;0.45;;;25.60;39.50;;;;;;5053936;28;20123;-72
2023/12/15 10:01:14;;;;;;;4.15;0.75;;;25.30;40.00;;;;;;5022652;28;20059;-73
2023/12/15 10:03:39;;;;;;;4.25;0.57;;;25.00;40.40;;;;;;5041651;28;20044;-67
2023/12/15 10:06:08;;;;;;;2.15;0.57;;;24.70;41.00;;;;;;5037178;28;20060;-67
2023/12/15 10:08:43;;;;;;;3.33;0.63;;;24.40;41.60;;;;;;5040282;28;20045;-66
2023/12/15 10:11:09;;;;;;;2.45;0.50;;;24.00;42.10;;;;;;5053282;28;20083;-67
2023/12/15 10:13:39;;;;;;;1.35;0.40;;;23.80;42.70;;;;;;5037645;28;20036;-71
2023/12/15 10:16:05;;;;;;;1.83;0.80;;;23.60;43.30;;;;;;5054778;28;20040;-66
2023/12/15 10:18:31;;;;;;;1.70;0.50;;;23.30;43.80;;;;;;5040763;28;20102;-69
2023/12/15 10:20:57;;;;;;;3.35;0.90;;;23.10;44.20;;;;;;5056240;28;20159;-66
2023/12/15 10:23:27;;;;;;;1.92;0.65;;;22.90;44.70;;;;;;5037226;28;20045;-69
2023/12/15 10:25:53;;;;;;;2.15;0.60;;;22.70;45.20;;;;;;5045754;28;20048;-71
2023/12/15 10:28:19;;;;;;;2.85;0.55;;;22.50;45.60;;;;;;5043594;28;20130;-72
2023/12/15 10:30:45;;;;;;;2.50;1.17;;;22.30;46.10;;;;;;5036195;28;20041;-72
2023/12/15 10:33:14;;;;;;;5.10;0.93;;;22.20;46.50;;;;;;5055591;28;20087;-71
2023/12/15 10:35:40;;;;;;;2.33;0.70;;;22.10;46.80;;;;;;5037919;28;20115;-67
2023/12/15 10:38:07;;;;;;;3.42;0.50;;;22.10;46.90;;;;;;5039015;28;20042;-70
2023/12/15 10:40:32;;;;;;;7.10;1.05;;;22.30;46.70;;;;;;5058739;28;20041;-73
2023/12/15 10:42:59;;;;;;;6.93;0.70;;;22.50;46.30;;;;;;5037412;28;20443;-73
2023/12/15 10:45:26;;;;;;;3.90;0.77;;;22.60;46.00;;;;;;5043325;28;20248;-67
2023/12/15 10:47:57;;;;;;;7.68;0.90;;;22.70;45.60;;;;;;5039343;28;20050;-72
2023/12/15 10:50:24;;;;;;;5.20;0.60;;;23.00;45.20;;;;;;5054973;28;20114;-66
2023/12/15 10:52:51;;;;;;;2.58;0.60;;;23.20;44.90;;;;;;5039561;28;20052;-71
2023/12/15 10:55:20;;;;;;;4.35;0.50;;;23.30;44.70;;;;;;5058446;28;20060;-74
2023/12/15 10:57:47;;;;;;;2.90;0.50;;;23.60;44.60;;;;;;5039057;28;20088;-70
2023/12/15 11:00:17;;;;;;;3.40;1.00;;;23.80;44.30;;;;;;5038034;28;20378;-67
2023/12/15 11:02:43;;;;;;;;;;;23.90;44.30;;;;;;5041589;28;20515;-68
2023/12/15 11:05:10;;;;;;;8.65;0.88;;;24.10;44.10;;;;;;5053265;28;19920;-70
2023/12/15 11:07:40;;;;;;;5.15;0.75;;;24.20;44.00;;;;;;5051582;28;20043;-66
2023/12/15 11:10:09;;;;;;;4.35;0.80;;;24.20;44.20;;;;;;5041357;28;20048;-68
2023/12/15 11:15:18;;;;;;;3.90;1.17;;;24.20;44.20;;;;;;5116136;27;20883;-66
2023/12/15 11:17:48;;;;;;;6.22;1.63;;;23.90;43.50;;;;;;5105157;28;20040;-66
2023/12/15 11:23:09;;;;;;;4.45;0.98;;;23.60;43.70;;;;;;5072524;27;20519;-66
2023/12/15 11:28:20;;;;;;;8.68;1.35;;;23.20;45.10;;;;;;5071801;28;20106;-69
2023/12/15 11:30:48;;;;;;;9.55;2.10;;;23.10;44.80;;;;;;5041685;28;20558;-67
2023/12/15 11:36:05;;;;;;;7.43;2.25;;;23.10;44.50;;;;;;5078079;27;20468;-74
2023/12/15 11:38:30;;;;;;;7.35;2.70;;;23.20;43.80;;;;;;5070513;28;20052;-67
2023/12/15 11:40:57;;;;;;;11.18;2.60;;;23.30;43.50;;;;;;5074209;28;20040;-73
2023/12/15 11:43:31;;;;;;;10.23;2.03;;;23.40;43.00;;;;;;5056123;28;20053;-66
2023/12/15 11:45:57;;;;;;;11.68;2.42;;;23.60;42.60;;;;;;5057348;28;20107;-73
2023/12/15 11:48:24;;;;;;;8.63;2.10;;;23.70;42.30;;;;;;5045232;28;20491;-74
2023/12/15 11:50:49;;;;;;;9.30;1.45;;;23.80;42.10;;;;;;5057844;28;20044;-67
2023/12/15 11:53:18;;;;;;;9.73;2.05;;;23.90;42.00;;;;;;5065921;28;20059;-65
2023/12/15 11:55:48;;;;;;;8.25;1.60;;;24.00;42.00;;;;;;5075298;28;20525;-69
2023/12/15 11:58:14;;;;;;;6.85;2.00;;;24.00;41.90;;;;;;5047278;28;20075;-70
2023/12/15 12:00:40;;;;;;;8.40;1.90;;;24.00;41.90;;;;;;5067169;28;20151;-68
2023/12/15 12:03:09;;;;;;;7.40;1.15;;;23.90;42.00;;;;;;5065928;28;20533;-67
2023/12/15 12:05:35;;;;;;;7.13;1.17;;;23.90;42.20;;;;;;5059964;28;20041;-64
2023/12/15 12:08:01;;;;;;;5.03;1.27;;;23.80;42.50;;;;;;5080830;28;20465;-69
2023/12/15 12:10:31;;;;;;;7.85;1.45;;;23.80;42.80;;;;;;5076888;28;20115;-69
2023/12/15 12:12:57;;;;;;;8.50;1.67;;;23.70;43.10;;;;;;5072985;28;20427;-70
2023/12/15 12:15:23;;;;;;;8.05;1.48;;;23.80;43.20;;;;;;5078163;28;20063;-65
2023/12/15 12:17:50;;;;;;;4.57;1.20;;;24.10;43.00;;;;;;5077695;28;20475;-68
2023/12/15 12:20:15;;;;;;;5.05;0.88;;;24.50;42.60;;;;;;5074117;28;20036;-75
2023/12/15 12:22:42;;;;;;;3.00;0.90;;;25.00;41.90;;;;;;5077758;28;20139;-65
2023/12/15 12:25:11;;;;;;;4.63;0.82;;;25.30;41.30;;;;;;5065217;28;20048;-65
2023/12/15 12:27:40;;;;;;;4.90;1.38;;;25.50;40.80;;;;;;5058478;28;20116;-66
2023/12/15 12:30:14;;;;;;;7.47;1.05;;;25.40;40.60;;;;;;5067251;28;20491;-70
2023/12/15 12:32:41;;;;;;;3.17;0.77;;;25.30;40.70;;;;;;5067947;28;20415;-66
2023/12/15 12:35:09;;;;;;;4.63;0.85;;;25.30;40.60;;;;;;5065750;28;20087;-72
2023/12/15 12:37:35;;;;;;;5.43;1.15;;;25.30;40.70;;;;;;5099312;28;20142;-73
2023/12/15 12:40:03;;;;;;;4.63;0.88;;;25.20;40.80;;;;;;5097414;28;20399;-73
2023/12/15 12:42:30;;;;;;;7.30;1.15;;;25.20;41.00;;;;;;5067912;28;20074;-66
2023/12/15 12:44:56;;;;;;;4.72;0.70;;;25.50;41.00;;;;;;5096146;28;20040;-67
2023/12/15 12:47:22;;;;;;;5.43;0.77;;;25.70;40.50;;;;;;5081656;28;20223;-68
2023/12/15 12:49:48;;;;;;;5.80;1.10;;;26.00;40.00;;;;;;5048336;28;20554;-66
2023/12/15 12:52:14;;;;;;;3.28;0.82;;;26.00;39.80;;;;;;5058051;28;20097;-68
2023/12/15 12:54:40;;;;;;;3.88;0.73;;;26.00;40.00;;;;;;5085431;28;20442;-66